Time;durP1;ratioP1;P1;durP2;ratioP2;P2;SDS_P1;SDS_P2;PMS_P1;PMS_P2;Temp;Humidity;BMP_temperature;BMP_pressure;BME280_temperature;BME280_humidity;BME280_pressure;Samples;Min_cycle;Max_cycle;Signal;HPM_P1;HPM_P2
2021/11/20 00:01:20;;;;;;;;;;;;;;;1.83;81.68;97293.03;5113698;28;20336;-68
2021/11/20 00:03:46;;;;;;;;;;;;;;;1.80;81.58;97273.28;5110647;28;20018;-68
2021/11/20 00:06:13;;;;;;;;;;;;;;;1.78;82.28;97273.41;5114576;28;20014;-65
2021/11/20 00:08:38;;;;;;;;;;;;;;;1.77;82.03;97261.31;5114583;28;20314;-68
2021/11/20 00:11:05;;;;;;;;;;;;;;;1.81;82.04;97253.22;5113833;28;19946;-65
2021/11/20 00:13:30;;;;;;;;;;;;;;;1.84;82.37;97247.78;5114725;28;20014;-66
2021/11/20 00:15:57;;;;;;;;;;;;;;;1.88;82.40;97238.75;5114449;28;20440;-67
2021/11/20 00:18:23;;;;;;;;;;;;;;;1.91;82.25;97228.09;5111504;28;19919;-72
2021/11/20 00:20:52;;;;;;;;;;;;;;;1.78;82.22;97233.47;5107180;28;20381;-71
2021/11/20 00:23:19;;;;;;;;;;;;;;;1.86;81.82;97222.44;5104130;28;20176;-68
2021/11/20 00:25:50;;;;;;;;;;;;;;;1.79;82.30;97209.06;5114624;28;19924;-67
2021/11/20 00:28:21;;;;;;;;;;;;;;;1.86;81.96;97197.19;5113424;28;19989;-68
2021/11/20 00:30:57;;;;;;;;;;;;;;;1.88;81.84;97191.84;5110659;28;20016;-67
2021/11/20 00:33:29;;;;;;;;;;;;;;;1.90;82.07;97175.13;5080799;28;20349;-68
2021/11/20 00:35:56;;;;;;;;;;;;;;;1.91;81.69;97170.78;5106955;28;19931;-67
2021/11/20 00:38:22;;;;;;;;;;;;;;;1.86;82.19;97162.50;5093964;28;19941;-69
2021/11/20 00:40:50;;;;;;;;;;;;;;;1.85;82.22;97145.22;5112315;28;20405;-69
2021/11/20 00:43:17;;;;;;;;;;;;;;;1.89;82.10;97136.16;5095517;28;19924;-68
2021/11/20 00:45:42;;;;;;;;;;;;;;;1.85;81.69;97124.34;5112161;28;19934;-67
2021/11/20 00:48:08;;;;;;;;;;;;;;;1.83;82.06;97110.63;5108686;28;19920;-67
2021/11/20 00:50:35;;;;;;;;;;;;;;;1.87;82.03;97112.00;5112153;28;20014;-66
2021/11/20 00:53:00;;;;;;;;;;;;;;;1.88;81.68;97092.81;5112371;28;19943;-67
2021/11/20 00:55:28;;;;;;;;;;;;;;;1.87;82.09;97088.56;5113695;28;20002;-69
2021/11/20 00:57:54;;;;;;;;;;;;;;;1.84;82.34;97070.59;5114795;28;19965;-67
2021/11/20 01:00:23;;;;;;;;;;;;;;;1.87;82.08;97057.28;5102801;28;19964;-69
2021/11/20 01:02:51;;;;;;;;;;;;;;;1.87;81.72;97055.53;5090367;28;19982;-68
2021/11/20 01:05:17;;;;;;;;;;;;;;;1.80;82.36;97056.97;5075087;28;20369;-69
2021/11/20 01:07:43;;;;;;;;;;;;;;;1.81;81.85;97034.34;5105382;28;19919;-68
2021/11/20 01:10:12;;;;;;;;;;;;;;;1.84;81.65;97034.09;5112132;28;19966;-66
2021/11/20 01:12:37;;;;;;;;;;;;;;;1.80;82.19;97019.69;5113359;28;19920;-67
2021/11/20 01:15:05;;;;;;;;;;;;;;;1.72;81.73;97005.53;5111482;28;19972;-66
2021/11/20 01:17:32;;;;;;;;;;;;;;;1.80;81.77;97002.25;5108197;28;20273;-70
2021/11/20 01:19:59;;;;;;;;;;;;;;;1.78;81.83;96986.75;5103973;28;19965;-67
2021/11/20 01:22:57;;;;;;;;;;;;;;;1.70;82.16;96975.34;5080839;28;19921;-67
2021/11/20 01:25:25;;;;;;;;;;;;;;;1.73;81.71;96965.47;5058716;28;19921;-69
2021/11/20 01:28:17;;;;;;;;;;;;;;;1.77;81.96;96961.66;5034069;28;19921;-67
2021/11/20 01:31:04;;;;;;;;;;;;;;;1.76;81.79;96933.94;5065695;28;19920;-67
2021/11/20 01:33:41;;;;;;;;;;;;;;;1.77;82.15;96935.59;5054527;28;19928;-68
2021/11/20 01:36:08;;;;;;;;;;;;;;;1.77;81.67;96919.97;5047545;28;20381;-66
2021/11/20 01:38:34;;;;;;;;;;;;;;;1.81;82.24;96922.28;5052753;28;20328;-66
2021/11/20 01:41:13;;;;;;;;;;;;;;;1.78;82.48;96906.00;5069291;28;19920;-69
2021/11/20 01:43:50;;;;;;;;;;;;;;;1.83;81.83;96895.16;5068766;28;19939;-66
2021/11/20 01:46:17;;;;;;;;;;;;;;;1.84;81.93;96877.75;5052700;28;20317;-68
2021/11/20 01:48:55;;;;;;;;;;;;;;;1.80;82.32;96865.94;5052944;28;19963;-67
2021/11/20 01:51:26;;;;;;;;;;;;;;;1.74;82.02;96855.06;5052178;28;20564;-67
2021/11/20 01:53:59;;;;;;;;;;;;;;;1.80;81.85;96850.31;5052481;28;19920;-67
2021/11/20 01:56:27;;;;;;;;;;;;;;;1.80;81.85;96832.06;5066378;28;20269;-67
2021/11/20 01:59:30;;;;;;;;;;;;;;;1.74;81.61;96802.16;5087960;28;19962;-66
2021/11/20 02:02:24;;;;;;;;;;;;;;;1.68;81.73;96806.09;5022228;28;19920;-70
2021/11/20 02:04:55;;;;;;;;;;;;;;;1.72;81.71;96798.84;5011772;28;19925;-70
2021/11/20 02:07:30;;;;;;;;;;;;;;;1.73;81.47;96793.53;5012310;28;20461;-67
2021/11/20 02:10:05;;;;;;;;;;;;;;;1.62;82.26;96793.66;5012699;28;19925;-66
2021/11/20 02:12:40;;;;;;;;;;;;;;;1.63;82.35;96784.03;5009667;28;19927;-69
2021/11/20 02:15:12;;;;;;;;;;;;;;;1.65;82.32;96767.31;5012225;28;19920;-69
2021/11/20 02:17:39;;;;;;;;;;;;;;;1.61;81.77;96758.94;5012595;28;19921;-65
2021/11/20 02:20:17;;;;;;;;;;;;;;;1.67;81.73;96752.38;4996337;28;20078;-65
2021/11/20 02:22:43;;;;;;;;;;;;;;;1.61;81.50;96747.72;5012086;28;20027;-69
2021/11/20 02:25:16;;;;;;;;;;;;;;;1.57;81.49;96734.13;5003340;28;19921;-67
2021/11/20 02:28:01;;;;;;;;;;;;;;;1.52;81.75;96720.69;5028308;28;19921;-68
2021/11/20 02:30:27;;;;;;;;;;;;;;;1.53;82.30;96713.69;5028517;28;19933;-70
2021/11/20 02:32:54;;;;;;;;;;;;;;;1.49;81.53;96713.13;5012413;28;19921;-66
2021/11/20 02:35:40;;;;;;;;;;;;;;;1.47;82.06;96701.22;5045489;28;19949;-69
2021/11/20 02:38:08;;;;;;;;;;;;;;;1.43;81.67;96693.69;5110405;28;20000;-67
2021/11/20 02:40:33;;;;;;;;;;;;;;;1.50;81.81;96685.34;5110442;28;19920;-69
2021/11/20 02:42:59;;;;;;;;;;;;;;;1.41;81.65;96669.56;5110917;28;20577;-66
2021/11/20 02:45:38;;;;;;;;;;;;;;;1.39;82.46;96655.84;5110289;28;19974;-66
2021/11/20 02:48:04;;;;;;;;;;;;;;;1.25;82.75;96656.25;5111640;28;19988;-69
2021/11/20 02:50:37;;;;;;;;;;;;;;;1.15;82.44;96642.38;5110376;28;20392;-69
2021/11/20 02:53:07;;;;;;;;;;;;;;;1.13;82.59;96645.97;5110259;28;19920;-66
2021/11/20 02:55:33;;;;;;;;;;;;;;;1.04;82.59;96628.53;5083137;28;20060;-70
2021/11/20 02:58:00;;;;;;;;;;;;;;;0.98;83.51;96621.25;5110504;28;20009;-68
2021/11/20 03:00:26;;;;;;;;;;;;;;;0.99;83.21;96612.50;5111589;28;20021;-69
2021/11/20 03:02:51;;;;;;;;;;;;;;;0.98;84.06;96590.03;5111473;28;19920;-69
2021/11/20 03:05:19;;;;;;;;;;;;;;;1.00;84.08;96579.50;5109879;28;19920;-67
2021/11/20 03:07:45;;;;;;;;;;;;;;;1.07;83.27;96578.84;5109507;28;19984;-67
2021/11/20 03:10:11;;;;;;;;;;;;;;;1.06;83.02;96571.97;5108758;28;19919;-68
2021/11/20 03:12:37;;;;;;;;;;;;;;;1.13;83.14;96561.84;5110435;28;19954;-68
2021/11/20 03:15:05;;;;;;;;;;;;;;;1.08;83.13;96558.81;5109711;28;20368;-69
2021/11/20 03:17:44;;;;;;;;;;;;;;;0.97;83.25;96544.16;5078324;28;19920;-68
2021/11/20 03:20:17;;;;;;;;;;;;;;;0.92;84.13;96538.53;5110290;28;20024;-66
2021/11/20 03:22:51;;;;;;;;;;;;;;;0.93;84.33;96540.19;5109697;28;19927;-71
2021/11/20 03:25:18;;;;;;;;;;;;;;;0.93;84.01;96519.38;5104840;28;20348;-69
2021/11/20 03:27:45;;;;;;;;;;;;;;;0.95;84.38;96512.25;5110513;28;19931;-66
2021/11/20 03:30:11;;;;;;;;;;;;;;;0.94;83.61;96508.81;5110948;28;19920;-68
2021/11/20 03:32:40;;;;;;;;;;;;;;;0.88;84.31;96495.56;5110493;28;19927;-66
2021/11/20 03:35:08;;;;;;;;;;;;;;;0.95;84.09;96486.25;5109494;28;19919;-69
2021/11/20 03:37:34;;;;;;;;;;;;;;;0.86;84.49;96482.69;5106543;28;19926;-69
2021/11/20 03:40:00;;;;;;;;;;;;;;;0.90;84.28;96475.44;5101109;28;19969;-66
2021/11/20 03:42:26;;;;;;;;;;;;;;;0.89;84.52;96466.78;5093147;28;20262;-67
2021/11/20 03:44:52;;;;;;;;;;;;;;;0.84;84.33;96449.97;5102292;28;19927;-66
2021/11/20 03:47:22;;;;;;;;;;;;;;;0.77;84.78;96437.50;5110340;28;19964;-66
2021/11/20 03:49:47;;;;;;;;;;;;;;;0.76;84.77;96446.28;5108620;28;19920;-68
2021/11/20 03:52:15;;;;;;;;;;;;;;;0.82;84.55;96425.88;5110719;28;19924;-69
2021/11/20 03:54:42;;;;;;;;;;;;;;;0.80;84.94;96423.41;5093478;28;19943;-68
2021/11/20 03:57:10;;;;;;;;;;;;;;;0.81;84.62;96412.03;5095887;28;19919;-68
2021/11/20 03:59:36;;;;;;;;;;;;;;;0.80;84.15;96400.81;5111996;28;19927;-68
2021/11/20 04:02:02;;;;;;;;;;;;;;;0.82;84.78;96386.84;5111344;28;19926;-68
2021/11/20 04:04:31;;;;;;;;;;;;;;;0.77;84.98;96384.66;5112820;28;19919;-68
2021/11/20 04:06:58;;;;;;;;;;;;;;;0.80;84.33;96363.56;5112760;28;20387;-69
2021/11/20 04:09:23;;;;;;;;;;;;;;;0.85;84.58;96366.56;5095712;28;19919;-66
2021/11/20 04:11:55;;;;;;;;;;;;;;;0.80;84.68;96346.19;5113386;28;19926;-67
2021/11/20 04:14:21;;;;;;;;;;;;;;;0.82;84.96;96350.44;5079351;28;20271;-68
2021/11/20 04:16:48;;;;;;;;;;;;;;;0.72;85.03;96333.03;5112850;28;19965;-66
2021/11/20 04:19:21;;;;;;;;;;;;;;;0.73;84.61;96323.47;5095887;28;19919;-67
2021/11/20 04:21:48;;;;;;;;;;;;;;;0.79;84.61;96323.72;5096559;28;20042;-68
2021/11/20 04:24:35;;;;;;;;;;;;;;;0.83;85.05;96315.66;5084277;28;19919;-70
2021/11/20 04:27:07;;;;;;;;;;;;;;;0.77;85.01;96317.88;5112737;28;20014;-65
2021/11/20 04:29:53;;;;;;;;;;;;;;;0.88;84.78;96298.66;5113669;28;19919;-68
2021/11/20 04:32:19;;;;;;;;;;;;;;;0.87;84.86;96285.78;5112511;28;20398;-68
2021/11/20 04:34:46;;;;;;;;;;;;;;;0.96;84.94;96284.94;5098716;28;19973;-66
2021/11/20 04:37:13;;;;;;;;;;;;;;;1.00;84.52;96285.47;5093962;28;20031;-68
2021/11/20 04:39:38;;;;;;;;;;;;;;;0.90;84.39;96277.72;5108092;28;20371;-66
2021/11/20 04:42:04;;;;;;;;;;;;;;;0.80;84.59;96283.75;5095637;28;19975;-69
2021/11/20 04:44:31;;;;;;;;;;;;;;;0.86;84.45;96266.78;5111976;28;20027;-67
2021/11/20 04:46:56;;;;;;;;;;;;;;;0.94;84.30;96271.25;5112375;28;20006;-67
2021/11/20 04:49:22;;;;;;;;;;;;;;;1.02;84.07;96247.13;5110615;28;19951;-68
2021/11/20 04:51:49;;;;;;;;;;;;;;;1.03;83.68;96243.56;5111885;28;20305;-67
2021/11/20 04:54:15;;;;;;;;;;;;;;;1.11;84.55;96236.66;5110332;28;20037;-66
2021/11/20 04:56:41;;;;;;;;;;;;;;;1.10;84.19;96234.22;5091130;28;20022;-67
2021/11/20 04:59:07;;;;;;;;;;;;;;;1.13;83.79;96228.72;5092288;28;19926;-69
2021/11/20 05:01:33;;;;;;;;;;;;;;;1.20;83.62;96228.97;5089514;28;19968;-67
2021/11/20 05:04:00;;;;;;;;;;;;;;;1.18;83.60;96216.06;5113493;28;20024;-68
2021/11/20 05:06:28;;;;;;;;;;;;;;;1.24;83.73;96199.88;5107565;28;19923;-67
2021/11/20 05:08:59;;;;;;;;;;;;;;;1.24;83.05;96201.66;5112135;28;20029;-71
2021/11/20 05:11:26;;;;;;;;;;;;;;;1.25;83.25;96196.31;5111896;28;19930;-68
2021/11/20 05:13:54;;;;;;;;;;;;;;;1.33;83.28;96192.97;5112015;28;19920;-65
2021/11/20 05:16:20;;;;;;;;;;;;;;;1.24;82.70;96184.25;5110193;28;19920;-67
2021/11/20 05:18:46;;;;;;;;;;;;;;;1.34;82.80;96184.19;5112328;28;19923;-71
2021/11/20 05:21:18;;;;;;;;;;;;;;;1.35;82.75;96166.81;5109667;28;20026;-68
2021/11/20 05:23:46;;;;;;;;;;;;;;;1.35;83.35;96167.63;5085050;28;19920;-67
2021/11/20 05:26:12;;;;;;;;;;;;;;;1.41;83.16;96174.84;5110954;28;19993;-68
2021/11/20 05:28:48;;;;;;;;;;;;;;;1.42;82.95;96165.22;5110549;28;20008;-68
2021/11/20 05:31:13;;;;;;;;;;;;;;;1.37;82.42;96163.09;5113145;28;19919;-73
2021/11/20 05:33:44;;;;;;;;;;;;;;;1.43;82.24;96156.47;5111502;28;19965;-67
2021/11/20 05:36:11;;;;;;;;;;;;;;;1.62;82.49;96155.50;5111860;28;20273;-67
2021/11/20 05:38:37;;;;;;;;;;;;;;;1.70;81.83;96158.16;5094681;28;19951;-68
2021/11/20 05:41:03;;;;;;;;;;;;;;;1.60;81.87;96152.22;5097038;28;19966;-68
2021/11/20 05:43:42;;;;;;;;;;;;;;;1.65;81.89;96139.56;5109327;28;19927;-65
2021/11/20 05:46:13;;;;;;;;;;;;;;;1.64;81.76;96132.72;5111029;28;19954;-69
2021/11/20 05:48:39;;;;;;;;;;;;;;;1.73;81.59;96142.25;5092837;28;20010;-70
2021/11/20 05:51:05;;;;;;;;;;;;;;;1.67;81.63;96127.22;5111018;28;20030;-70
2021/11/20 05:53:32;;;;;;;;;;;;;;;1.66;81.60;96136.00;5111251;28;19919;-67
2021/11/20 05:55:58;;;;;;;;;;;;;;;1.68;81.70;96130.63;5110855;28;20448;-69
2021/11/20 05:58:31;;;;;;;;;;;;;;;1.66;81.33;96120.38;5091578;28;20355;-69
2021/11/20 06:01:00;;;;;;;;;;;;;;;1.71;81.91;96115.53;5092097;28;20007;-72
2021/11/20 06:03:27;;;;;;;;;;;;;;;1.68;81.28;96112.41;5092850;28;19924;-69
2021/11/20 06:05:53;;;;;;;;;;;;;;;1.67;81.84;96110.75;5111217;28;19932;-68
2021/11/20 06:08:20;;;;;;;;;;;;;;;1.68;81.79;96108.00;5110862;28;20444;-69
2021/11/20 06:10:49;;;;;;;;;;;;;;;1.68;81.67;96102.78;5089994;28;19920;-68
2021/11/20 06:13:17;;;;;;;;;;;;;;;1.68;81.32;96102.78;5105210;28;19919;-68
2021/11/20 06:15:53;;;;;;;;;;;;;;;1.72;81.46;96101.53;5110893;28;19928;-67
2021/11/20 06:18:19;;;;;;;;;;;;;;;1.73;81.67;96090.16;5105830;28;20014;-70
2021/11/20 06:20:45;;;;;;;;;;;;;;;1.74;81.88;96094.34;5082381;28;19919;-67
2021/11/20 06:23:11;;;;;;;;;;;;;;;1.80;81.81;96089.53;5102451;28;19923;-70
2021/11/20 06:25:38;;;;;;;;;;;;;;;1.75;81.00;96093.41;5053296;28;20014;-69
2021/11/20 06:28:05;;;;;;;;;;;;;;;1.78;81.55;96087.91;5107149;28;20019;-69
2021/11/20 06:30:32;;;;;;;;;;;;;;;1.87;81.10;96085.31;5103098;28;20047;-72
2021/11/20 06:32:58;;;;;;;;;;;;;;;2.00;81.40;96079.72;5109780;28;20014;-68
2021/11/20 06:35:53;;;;;;;;;;;;;;;2.00;80.51;96083.13;5103212;28;20281;-69
2021/11/20 06:38:25;;;;;;;;;;;;;;;1.99;80.74;96073.69;5108839;28;19919;-70
2021/11/20 06:40:51;;;;;;;;;;;;;;;1.97;80.48;96074.81;5104670;28;19927;-69
2021/11/20 06:43:18;;;;;;;;;;;;;;;2.02;80.47;96065.56;5101003;28;19920;-67
2021/11/20 06:45:45;;;;;;;;;;;;;;;2.17;80.90;96059.75;5074763;28;20385;-69
2021/11/20 06:48:11;;;;;;;;;;;;;;;2.07;80.21;96065.91;5109121;28;19955;-69
2021/11/20 06:50:40;;;;;;;;;;;;;;;2.03;80.37;96058.56;5094818;28;19920;-69
2021/11/20 06:53:37;;;;;;;;;;;;;;;2.00;80.28;96064.88;5022938;28;19975;-70
2021/11/20 06:56:25;;;;;;;;;;;;;;;1.94;80.47;96065.50;5025431;28;19925;-67
2021/11/20 07:01:43;;;;;;;;;;;;;;;2.01;81.26;96063.94;4996586;28;20031;-69
2021/11/20 07:04:11;;;;;;;;;;;;;;;2.05;80.55;96059.22;5013038;28;19972;-69
2021/11/20 07:06:47;;;;;;;;;;;;;;;2.07;80.69;96060.69;5029163;28;20604;-72
2021/11/20 07:09:13;;;;;;;;;;;;;;;2.08;80.79;96053.69;5029473;28;19920;-70
2021/11/20 07:11:39;;;;;;;;;;;;;;;2.21;80.72;96051.47;5012505;28;20011;-70
2021/11/20 07:14:05;;;;;;;;;;;;;;;2.27;80.59;96044.84;5014195;28;19921;-69
2021/11/20 07:16:31;;;;;;;;;;;;;;;2.34;80.18;96051.03;5032225;28;19944;-68
2021/11/20 07:18:58;;;;;;;;;;;;;;;2.31;80.08;96051.38;5015860;28;19924;-70
2021/11/20 07:21:49;;;;;;;;;;;;;;;2.51;79.77;96041.50;5030693;28;19921;-70
2021/11/20 07:24:35;;;;;;;;;;;;;;;2.38;79.52;96047.16;5032035;28;19928;-68
2021/11/20 07:27:01;;;;;;;;;;;;;;;2.45;80.23;96043.91;5032286;28;19952;-68
2021/11/20 07:29:27;;;;;;;;;;;;;;;2.45;79.92;96049.13;5040234;28;19939;-71
2021/11/20 07:32:02;;;;;;;;;;;;;;;2.49;80.26;96045.22;5114418;28;19962;-69
2021/11/20 07:34:28;;;;;;;;;;;;;;;2.39;79.98;96043.59;5113653;28;20015;-69
2021/11/20 07:36:55;;;;;;;;;;;;;;;2.53;80.25;96054.38;5114084;28;20014;-68
2021/11/20 07:39:21;;;;;;;;;;;;;;;2.66;80.09;96059.97;5114298;28;20030;-73
2021/11/20 07:41:47;;;;;;;;;;;;;;;2.68;79.87;96058.00;5113655;28;20017;-69
2021/11/20 07:44:17;;;;;;;;;;;;;;;2.82;79.66;96053.16;5098765;28;19969;-70
2021/11/20 07:46:43;;;;;;;;;;;;;;;2.94;79.41;96053.66;5077165;28;19924;-72
2021/11/20 07:49:09;;;;;;;;;;;;;;;3.07;79.40;96056.63;5108455;28;20296;-68
2021/11/20 07:51:37;;;;;;;;;;;;;;;3.20;79.27;96053.53;5106149;28;20014;-70
2021/11/20 07:54:06;;;;;;;;;;;;;;;3.25;78.71;96059.06;5107740;28;19982;-70
2021/11/20 07:56:41;;;;;;;;;;;;;;;3.41;79.05;96047.81;5093108;28;20044;-68
2021/11/20 07:59:10;;;;;;;;;;;;;;;3.46;78.62;96039.50;5097261;28;19920;-69
2021/11/20 08:01:37;;;;;;;;;;;;;;;3.54;78.37;96055.19;5092826;28;19935;-71
2021/11/20 08:04:02;;;;;;;;;;;;;;;3.65;78.28;96039.16;5092714;28;19923;-68
2021/11/20 08:07:06;;;;;;;;;;;;;;;3.55;78.42;96054.19;5093691;28;20375;-69
2021/11/20 08:09:51;;;;;;;;;;;;;;;3.81;78.30;96047.94;5100395;28;19919;-68
2021/11/20 08:12:30;;;;;;;;;;;;;;;3.98;78.17;96049.53;5113332;28;19930;-70
2021/11/20 08:15:04;;;;;;;;;;;;;;;4.09;77.61;96052.78;5100022;28;20461;-69
2021/11/20 08:17:59;;;;;;;;;;;;;;;4.23;77.34;96052.09;5071291;28;20022;-72
2021/11/20 08:20:36;;;;;;;;;;;;;;;4.33;76.81;96047.47;5054648;28;19920;-68
2021/11/20 08:23:19;;;;;;;;;;;;;;;4.35;76.54;96053.38;5057161;28;19994;-70
2021/11/20 08:25:46;;;;;;;;;;;;;;;4.42;76.67;96063.16;5037079;28;19921;-71
2021/11/20 08:28:13;;;;;;;;;;;;;;;4.47;76.14;96058.22;5072065;28;19920;-72
2021/11/20 08:30:39;;;;;;;;;;;;;;;4.55;76.05;96052.97;5074241;28;19977;-69
2021/11/20 08:33:05;;;;;;;;;;;;;;;4.58;76.25;96063.06;5075081;28;20013;-69
2021/11/20 08:35:51;;;;;;;;;;;;;;;4.60;75.45;96063.72;5067161;28;19920;-68
2021/11/20 08:38:29;;;;;;;;;;;;;;;4.67;75.55;96069.94;5074410;28;19934;-72
2021/11/20 08:41:03;;;;;;;;;;;;;;;4.72;75.23;96076.44;5074213;28;20023;-74
2021/11/20 08:43:29;;;;;;;;;;;;;;;4.77;75.15;96079.34;5061460;28;19970;-72
2021/11/20 08:46:02;;;;;;;;;;;;;;;4.76;74.75;96077.72;5080125;28;20350;-72
2021/11/20 08:48:28;;;;;;;;;;;;;;;4.73;74.08;96080.69;5081772;28;19927;-71
2021/11/20 08:50:59;;;;;;;;;;;;;;;4.66;74.67;96085.78;5058469;28;19927;-72
2021/11/20 08:53:25;;;;;;;;;;;;;;;4.63;74.58;96088.75;5080645;28;19956;-72
2021/11/20 08:55:52;;;;;;;;;;;;;;;4.63;74.38;96089.56;5068388;28;19926;-73
2021/11/20 08:58:47;;;;;;;;;;;;;;;4.58;74.47;96094.47;5103747;28;19965;-74
2021/11/20 09:01:34;;;;;;;;;;;;;;;4.57;74.31;96102.50;5118788;28;19920;-75
2021/11/20 09:04:07;;;;;;;;;;;;;;;4.49;74.31;96106.78;5101248;28;19919;-73
2021/11/20 09:06:41;;;;;;;;;;;;;;;4.48;74.27;96113.00;5115910;28;19926;-73
2021/11/20 09:09:09;;;;;;;;;;;;;;;4.50;74.40;96112.84;5095607;28;19924;-72
2021/11/20 09:11:56;;;;;;;;;;;;;;;4.54;74.27;96116.75;5114761;28;19976;-72
2021/11/20 09:14:34;;;;;;;;;;;;;;;4.47;74.34;96110.56;5113589;28;20265;-72
2021/11/20 09:17:12;;;;;;;;;;;;;;;4.26;74.04;96114.56;5100961;28;19920;-73
2021/11/20 09:19:39;;;;;;;;;;;;;;;4.42;74.57;96123.31;5115073;28;19919;-74
2021/11/20 09:22:06;;;;;;;;;;;;;;;4.59;73.96;96127.53;5096925;28;19919;-74
2021/11/20 09:24:54;;;;;;;;;;;;;;;4.61;73.97;96138.66;5071602;28;19973;-71
2021/11/20 09:27:26;;;;;;;;;;;;;;;4.68;73.68;96134.34;5093793;28;19967;-72
2021/11/20 09:30:35;;;;;;;;;;;;;;;;;;;;;
2021/11/20 09:37:21;;;;;;;;;;;;;;;4.63;72.87;96139.28;4962987;28;20024;-71
2021/11/20 09:40:03;;;;;;;;;;;;;;;4.65;72.53;96145.16;4954294;28;19954;-69
2021/11/20 09:42:47;;;;;;;;;;;;;;;4.53;72.35;96152.56;5148044;22;20704;-70
2021/11/20 09:45:21;;;;;;;;;;;;;;;4.30;72.50;96162.91;5003680;28;19932;-68
2021/11/20 09:47:58;;;;;;;;;;;;;;;4.25;72.65;96170.47;5017777;28;20015;-69
2021/11/20 09:50:24;;;;;;;;;;;;;;;4.25;72.91;96174.84;5013849;28;20430;-71
2021/11/20 09:52:49;;;;;;;;;;;;;;;4.22;73.13;96186.47;5045697;28;20023;-70
2021/11/20 09:55:41;;;;;;;;;;;;;;;4.18;72.60;96188.59;5014365;28;19926;-71
2021/11/20 09:58:10;;;;;;;;;;;;;;;4.13;72.83;96192.69;5028715;28;20012;-73
2021/11/20 10:01:03;;;;;;;;;;;;;;;4.11;73.02;96199.88;5031707;28;20399;-71
2021/11/20 10:04:53;;;;;;;;;;;;;;;3.93;73.58;96213.94;4953678;28;20017;-70
2021/11/20 10:08:41;;;;;;;;;;;;;;;3.86;73.61;96220.78;4931102;29;19922;-71
2021/11/20 10:11:13;;;;;;;;;;;;;;;3.92;73.59;96230.59;4931349;29;19990;-69
2021/11/20 10:14:14;;;;;;;;;;;;;;;3.84;73.54;96234.03;4911474;29;19942;-69
2021/11/20 10:27:57;;;;;;;;;;;;;;;3.60;73.61;96263.56;4817519;29;20027;-70
2021/11/20 10:31:33;;;;;;;;;;;;;;;;;;;;;
2021/11/20 10:45:56;;;;;;;;;;;;;;;;;;;;;
2021/11/20 10:49:25;;;;;;;;;;;;;;;3.22;75.02;96310.09;6072883;23;19897;-70
2021/11/20 10:52:28;;;;;;;;;;;;;;;3.24;74.87;96318.59;6046753;23;19917;-72
2021/11/20 10:55:09;;;;;;;;;;;;;;;3.22;74.81;96326.56;6071691;23;20360;-69
2021/11/20 10:58:01;;;;;;;;;;;;;;;3.20;74.94;96333.75;6073317;23;19945;-71
2021/11/20 11:00:36;;;;;;;;;;;;;;;3.02;75.27;96346.06;6014406;23;19929;-72
2021/11/20 11:03:20;;;;;;;;;;;;;;;3.04;75.46;96338.88;6016249;23;19933;-72
2021/11/20 11:05:48;;;;;;;;;;;;;;;3.01;74.96;96355.66;5991681;23;20289;-69
2021/11/20 11:08:14;;;;;;;;;;;;;;;3.00;74.80;96368.88;6016086;23;19922;-72
2021/11/20 11:10:42;;;;;;;;;;;;;;;2.98;75.01;96366.41;6013689;23;19958;-75
2021/11/20 11:13:10;;;;;;;;;;;;;;;2.96;75.30;96377.97;6012948;23;19966;-70
2021/11/20 11:15:54;;;;;;;;;;;;;;;2.93;75.21;96379.13;6013356;23;19922;-68
2021/11/20 11:18:22;;;;;;;;;;;;;;;2.81;75.34;96386.34;6013093;23;19930;-69
2021/11/20 11:20:48;;;;;;;;;;;;;;;2.82;75.73;96381.97;6013628;23;19961;-73
2021/11/20 11:23:13;;;;;;;;;;;;;;;2.77;75.71;96399.84;5989417;23;19931;-70
2021/11/20 11:25:54;;;;;;;;;;;;;;;2.76;76.07;96404.25;6123731;23;20007;-69
2021/11/20 11:28:38;;;;;;;;;;;;;;;2.80;75.87;96410.00;6132916;23;20028;-71
2021/11/20 11:31:20;;;;;;;;;;;;;;;2.69;76.27;96421.47;6158385;23;19920;-69
2021/11/20 11:33:47;;;;;;;;;;;;;;;2.70;76.14;96423.94;6158387;23;20007;-70
2021/11/20 11:36:32;;;;;;;;;;;;;;;2.66;76.00;96443.47;6138510;23;19995;-71
2021/11/20 11:39:16;;;;;;;;;;;;;;;2.66;76.02;96446.06;6221701;23;19943;-72
2021/11/20 11:42:02;;;;;;;;;;;;;;;2.64;75.94;96453.25;6221520;23;19951;-71
2021/11/20 11:44:51;;;;;;;;;;;;;;;2.62;76.33;96468.22;6179491;23;19920;-71
2021/11/20 11:47:19;;;;;;;;;;;;;;;2.66;75.82;96472.16;6123020;23;20367;-70
2021/11/20 11:50:03;;;;;;;;;;;;;;;2.69;75.85;96476.28;6116114;23;20331;-71
2021/11/20 11:52:41;;;;;;;;;;;;;;;2.74;75.53;96485.31;6122272;23;20268;-68
2021/11/20 11:55:25;;;;;;;;;;;;;;;2.65;75.12;96501.81;6116717;23;19921;-67
2021/11/20 11:57:56;;;;;;;;;;;;;;;2.65;75.68;96507.06;6121200;23;20024;-70
2021/11/20 12:00:28;;;;;;;;;;;;;;;2.70;75.19;96520.47;6120980;23;19943;-71
2021/11/20 12:02:55;;;;;;;;;;;;;;;2.70;75.51;96524.88;6122655;23;20033;-71
2021/11/20 12:05:33;;;;;;;;;;;;;;;2.63;75.20;96537.69;6121824;23;19947;-72
2021/11/20 12:08:19;;;;;;;;;;;;;;;2.61;75.66;96542.22;6098950;23;19932;-72
2021/11/20 12:10:59;;;;;;;;;;;;;;;2.59;75.70;96538.94;6122543;23;20368;-72
2021/11/20 12:13:26;;;;;;;;;;;;;;;2.60;75.60;96551.03;6121400;23;19986;-77
2021/11/20 12:16:07;;;;;;;;;;;;;;;2.61;75.31;96555.28;6098012;23;19921;-71
2021/11/20 12:18:38;;;;;;;;;;;;;;;2.61;75.48;96578.75;6121737;23;19920;-70
2021/11/20 12:21:25;;;;;;;;;;;;;;;2.57;75.31;96580.03;6096919;23;19952;-72
2021/11/20 12:23:56;;;;;;;;;;;;;;;2.50;75.71;96592.81;6096101;23;20236;-70
2021/11/20 12:26:53;;;;;;;;;;;;;;;2.47;75.95;96592.28;6164249;23;19922;-72
2021/11/20 12:29:21;;;;;;;;;;;;;;;2.47;75.81;96603.53;6133735;23;20301;-71
2021/11/20 12:31:56;;;;;;;;;;;;;;;2.41;75.57;96609.34;6183118;23;20315;-69
2021/11/20 12:34:40;;;;;;;;;;;;;;;2.51;75.68;96625.75;6179980;23;19920;-70
2021/11/20 12:37:25;;;;;;;;;;;;;;;2.61;75.67;96630.94;6156078;23;20347;-72
2021/11/20 12:39:53;;;;;;;;;;;;;;;2.59;75.26;96627.63;6184557;23;19928;-72
2021/11/20 12:42:40;;;;;;;;;;;;;;;2.63;74.78;96642.06;6181121;23;19924;-70
2021/11/20 12:45:29;;;;;;;;;;;;;;;2.58;75.26;96642.47;6183848;23;20231;-69
2021/11/20 12:48:04;;;;;;;;;;;;;;;2.46;75.10;96648.84;6174362;23;19920;-69
2021/11/20 12:50:48;;;;;;;;;;;;;;;2.43;74.88;96643.94;6182050;23;19927;-70
2021/11/20 12:53:14;;;;;;;;;;;;;;;2.42;74.98;96663.16;6157472;23;19920;-72
2021/11/20 12:55:42;;;;;;;;;;;;;;;2.41;74.77;96672.75;6182510;23;19927;-69
2021/11/20 12:58:40;;;;;;;;;;;;;;;2.42;75.00;96674.38;6157551;23;19923;-73
2021/11/20 13:09:13;;;;;;;;;;;;;;;;;;;;;
2021/11/20 13:12:19;;;;;;;;;;;;;;;2.52;74.25;96717.91;5982455;23;19922;-73
2021/11/20 13:15:15;;;;;;;;;;;;;;;2.51;74.09;96703.22;5980046;23;19945;-70
2021/11/20 13:18:38;;;;;;;;;;;;;;;2.52;74.41;96723.94;5974438;23;19922;-71
2021/11/20 13:21:10;;;;;;;;;;;;;;;2.52;74.07;96720.50;6005891;23;20007;-72
2021/11/20 13:23:36;;;;;;;;;;;;;;;2.53;73.68;96735.16;5981440;23;20005;-72
2021/11/20 13:26:02;;;;;;;;;;;;;;;2.55;73.80;96741.88;6006963;23;19948;-72
2021/11/20 13:28:50;;;;;;;;;;;;;;;2.56;73.76;96745.34;5982518;23;19991;-72
2021/11/20 13:31:39;;;;;;;;;;;;;;;2.53;74.03;96758.66;5982389;23;20010;-71
2021/11/20 13:34:12;;;;;;;;;;;;;;;2.61;73.62;96764.00;6006411;23;19922;-77
2021/11/20 13:36:42;;;;;;;;;;;;;;;2.65;73.53;96772.38;5997248;23;19922;-70
2021/11/20 13:39:15;;;;;;;;;;;;;;;2.62;73.75;96783.91;6063249;23;19926;-72
2021/11/20 13:42:07;;;;;;;;;;;;;;;2.63;73.79;96784.72;6080760;23;19925;-73
2021/11/20 13:44:32;;;;;;;;;;;;;;;2.67;73.59;96796.53;6093032;23;19921;-70
2021/11/20 13:47:10;;;;;;;;;;;;;;;2.62;73.98;96804.78;6092147;23;20376;-75
2021/11/20 13:49:45;;;;;;;;;;;;;;;2.58;73.64;96790.38;6156746;23;20260;-73
2021/11/20 13:52:28;;;;;;;;;;;;;;;2.62;74.00;96820.44;6161116;23;19926;-72
2021/11/20 13:54:58;;;;;;;;;;;;;;;2.58;73.96;96819.88;6183121;23;20299;-73
2021/11/20 13:57:30;;;;;;;;;;;;;;;2.59;74.39;96815.47;6183378;23;19920;-70
2021/11/20 14:00:00;;;;;;;;;;;;;;;2.56;73.88;96837.47;6097165;23;19952;-72
2021/11/20 14:02:26;;;;;;;;;;;;;;;2.55;74.51;96863.69;6097668;23;20387;-71
2021/11/20 14:04:51;;;;;;;;;;;;;;;2.53;74.55;96847.34;6073523;23;19948;-73
2021/11/20 14:07:17;;;;;;;;;;;;;;;2.49;74.62;96869.47;6122383;23;19921;-72
2021/11/20 14:09:51;;;;;;;;;;;;;;;2.54;74.42;96868.09;6122491;23;19921;-73
2021/11/20 14:12:23;;;;;;;;;;;;;;;2.47;73.83;96879.19;6098103;23;19996;-72
2021/11/20 14:14:59;;;;;;;;;;;;;;;2.49;74.14;96882.50;6074357;23;20367;-71